sensor_id;sensor_type;location;lat;lon;timestamp;P1;durP1;ratioP1;P2;durP2;ratioP2
53961;SDS011;39868;53.398;6.564;2023-03-03T00:01:35;4.47;;;2.70;;
53961;SDS011;39868;53.398;6.564;2023-03-03T00:04:03;5.70;;;3.40;;
53961;SDS011;39868;53.398;6.564;2023-03-03T00:06:30;6.37;;;3.70;;
53961;SDS011;39868;53.398;6.564;2023-03-03T00:08:57;6.37;;;2.93;;
53961;SDS011;39868;53.398;6.564;2023-03-03T00:11:25;5.00;;;3.67;;
53961;SDS011;39868;53.398;6.564;2023-03-03T00:13:53;6.10;;;3.97;;
53961;SDS011;39868;53.398;6.564;2023-03-03T00:16:26;5.33;;;3.37;;
53961;SDS011;39868;53.398;6.564;2023-03-03T00:18:57;5.57;;;3.27;;
53961;SDS011;39868;53.398;6.564;2023-03-03T00:21:25;7.60;;;3.77;;
53961;SDS011;39868;53.398;6.564;2023-03-03T00:26:40;5.53;;;3.40;;
53961;SDS011;39868;53.398;6.564;2023-03-03T00:29:28;2.77;;;2.40;;
53961;SDS011;39868;53.398;6.564;2023-03-03T00:31:59;4.27;;;3.13;;
53961;SDS011;39868;53.398;6.564;2023-03-03T00:34:50;35.27;;;13.17;;
53961;SDS011;39868;53.398;6.564;2023-03-03T00:37:28;23.43;;;10.17;;
53961;SDS011;39868;53.398;6.564;2023-03-03T00:39:58;30.57;;;11.57;;
53961;SDS011;39868;53.398;6.564;2023-03-03T00:42:41;12.97;;;7.07;;
53961;SDS011;39868;53.398;6.564;2023-03-03T00:45:17;15.73;;;8.80;;
53961;SDS011;39868;53.398;6.564;2023-03-03T00:47:48;13.70;;;6.60;;
53961;SDS011;39868;53.398;6.564;2023-03-03T00:50:20;10.17;;;5.63;;
53961;SDS011;39868;53.398;6.564;2023-03-03T00:55:26;6.97;;;4.43;;
53961;SDS011;39868;53.398;6.564;2023-03-03T00:57:54;6.20;;;3.30;;
53961;SDS011;39868;53.398;6.564;2023-03-03T01:02:54;9.87;;;6.10;;
53961;SDS011;39868;53.398;6.564;2023-03-03T01:05:22;251.03;;;62.50;;
53961;SDS011;39868;53.398;6.564;2023-03-03T01:07:50;200.03;;;50.20;;
53961;SDS011;39868;53.398;6.564;2023-03-03T01:10:17;141.87;;;34.53;;
53961;SDS011;39868;53.398;6.564;2023-03-03T01:12:44;48.07;;;17.27;;
53961;SDS011;39868;53.398;6.564;2023-03-03T01:15:13;32.30;;;11.70;;
53961;SDS011;39868;53.398;6.564;2023-03-03T01:17:41;22.20;;;8.27;;
53961;SDS011;39868;53.398;6.564;2023-03-03T01:20:10;86.03;;;22.30;;
53961;SDS011;39868;53.398;6.564;2023-03-03T01:22:39;21.37;;;9.57;;
53961;SDS011;39868;53.398;6.564;2023-03-03T01:25:09;14.67;;;6.30;;
53961;SDS011;39868;53.398;6.564;2023-03-03T01:27:37;11.40;;;5.17;;
53961;SDS011;39868;53.398;6.564;2023-03-03T01:30:05;6.53;;;3.77;;
53961;SDS011;39868;53.398;6.564;2023-03-03T01:32:34;7.00;;;3.90;;
53961;SDS011;39868;53.398;6.564;2023-03-03T01:35:02;5.27;;;2.90;;
53961;SDS011;39868;53.398;6.564;2023-03-03T01:37:30;4.53;;;3.27;;
53961;SDS011;39868;53.398;6.564;2023-03-03T01:39:57;3.57;;;2.60;;
53961;SDS011;39868;53.398;6.564;2023-03-03T01:42:25;3.60;;;2.53;;
53961;SDS011;39868;53.398;6.564;2023-03-03T01:50:33;4.13;;;2.33;;
53961;SDS011;39868;53.398;6.564;2023-03-03T01:53:38;9.43;;;2.53;;
53961;SDS011;39868;53.398;6.564;2023-03-03T01:56:10;3.03;;;1.80;;
53961;SDS011;39868;53.398;6.564;2023-03-03T01:58:39;2.50;;;1.90;;
53961;SDS011;39868;53.398;6.564;2023-03-03T02:01:13;3.50;;;2.33;;
53961;SDS011;39868;53.398;6.564;2023-03-03T02:03:42;2.63;;;1.77;;
53961;SDS011;39868;53.398;6.564;2023-03-03T02:06:13;5.33;;;1.60;;
53961;SDS011;39868;53.398;6.564;2023-03-03T02:11:16;2.27;;;1.60;;
53961;SDS011;39868;53.398;6.564;2023-03-03T02:13:45;3.13;;;1.53;;
53961;SDS011;39868;53.398;6.564;2023-03-03T02:16:13;1.40;;;1.30;;
53961;SDS011;39868;53.398;6.564;2023-03-03T02:18:40;2.27;;;2.13;;
53961;SDS011;39868;53.398;6.564;2023-03-03T02:21:13;7.93;;;1.70;;
53961;SDS011;39868;53.398;6.564;2023-03-03T02:23:50;5.73;;;1.53;;
53961;SDS011;39868;53.398;6.564;2023-03-03T02:26:26;2.73;;;1.53;;
53961;SDS011;39868;53.398;6.564;2023-03-03T02:29:00;2.33;;;1.73;;
53961;SDS011;39868;53.398;6.564;2023-03-03T02:31:29;1.77;;;1.50;;
53961;SDS011;39868;53.398;6.564;2023-03-03T02:33:58;1.87;;;1.53;;
53961;SDS011;39868;53.398;6.564;2023-03-03T02:36:30;1.63;;;1.53;;
53961;SDS011;39868;53.398;6.564;2023-03-03T02:39:10;4.10;;;1.70;;
53961;SDS011;39868;53.398;6.564;2023-03-03T02:41:49;7.10;;;1.97;;
53961;SDS011;39868;53.398;6.564;2023-03-03T02:44:39;3.10;;;1.70;;
53961;SDS011;39868;53.398;6.564;2023-03-03T02:47:07;3.97;;;1.90;;
53961;SDS011;39868;53.398;6.564;2023-03-03T02:49:35;4.33;;;1.70;;
53961;SDS011;39868;53.398;6.564;2023-03-03T02:52:04;2.40;;;1.70;;
53961;SDS011;39868;53.398;6.564;2023-03-03T02:54:37;1.77;;;1.67;;
53961;SDS011;39868;53.398;6.564;2023-03-03T02:57:05;4.27;;;2.03;;
53961;SDS011;39868;53.398;6.564;2023-03-03T02:59:34;2.20;;;2.00;;
53961;SDS011;39868;53.398;6.564;2023-03-03T03:02:08;2.90;;;1.67;;
53961;SDS011;39868;53.398;6.564;2023-03-03T03:04:36;1.73;;;1.60;;
53961;SDS011;39868;53.398;6.564;2023-03-03T03:07:03;2.83;;;1.63;;
53961;SDS011;39868;53.398;6.564;2023-03-03T03:09:34;4.10;;;1.70;;
53961;SDS011;39868;53.398;6.564;2023-03-03T03:12:01;1.33;;;1.33;;
53961;SDS011;39868;53.398;6.564;2023-03-03T03:14:31;2.13;;;1.70;;
53961;SDS011;39868;53.398;6.564;2023-03-03T03:16:58;2.40;;;1.70;;
53961;SDS011;39868;53.398;6.564;2023-03-03T03:19:27;2.57;;;1.80;;
53961;SDS011;39868;53.398;6.564;2023-03-03T03:21:58;5.20;;;1.97;;
53961;SDS011;39868;53.398;6.564;2023-03-03T03:24:26;2.53;;;1.97;;
53961;SDS011;39868;53.398;6.564;2023-03-03T03:26:59;2.50;;;1.53;;
53961;SDS011;39868;53.398;6.564;2023-03-03T03:29:27;1.50;;;1.50;;
53961;SDS011;39868;53.398;6.564;2023-03-03T03:31:54;1.93;;;1.83;;
53961;SDS011;39868;53.398;6.564;2023-03-03T03:34:22;2.33;;;1.70;;
53961;SDS011;39868;53.398;6.564;2023-03-03T03:36:50;2.63;;;1.67;;
53961;SDS011;39868;53.398;6.564;2023-03-03T03:39:20;3.93;;;1.80;;
53961;SDS011;39868;53.398;6.564;2023-03-03T03:41:49;2.13;;;1.93;;
53961;SDS011;39868;53.398;6.564;2023-03-03T03:44:17;2.17;;;1.50;;
53961;SDS011;39868;53.398;6.564;2023-03-03T03:46:44;2.50;;;1.70;;
53961;SDS011;39868;53.398;6.564;2023-03-03T03:49:12;3.37;;;2.10;;
53961;SDS011;39868;53.398;6.564;2023-03-03T03:51:39;1.83;;;1.73;;
53961;SDS011;39868;53.398;6.564;2023-03-03T03:54:12;6.82;;;2.28;;
53961;SDS011;39868;53.398;6.564;2023-03-03T03:56:40;1.90;;;1.80;;
53961;SDS011;39868;53.398;6.564;2023-03-03T03:59:09;1.80;;;1.70;;
53961;SDS011;39868;53.398;6.564;2023-03-03T04:01:37;1.47;;;1.47;;
53961;SDS011;39868;53.398;6.564;2023-03-03T04:04:04;2.50;;;1.80;;
53961;SDS011;39868;53.398;6.564;2023-03-03T04:06:32;1.90;;;1.80;;
53961;SDS011;39868;53.398;6.564;2023-03-03T04:09:00;2.10;;;1.90;;
53961;SDS011;39868;53.398;6.564;2023-03-03T04:11:29;1.73;;;1.63;;
53961;SDS011;39868;53.398;6.564;2023-03-03T04:13:56;1.90;;;1.80;;
53961;SDS011;39868;53.398;6.564;2023-03-03T04:16:25;2.10;;;1.50;;
53961;SDS011;39868;53.398;6.564;2023-03-03T04:18:52;1.73;;;1.63;;
53961;SDS011;39868;53.398;6.564;2023-03-03T04:21:20;5.03;;;1.80;;
53961;SDS011;39868;53.398;6.564;2023-03-03T04:23:50;2.00;;;1.80;;
53961;SDS011;39868;53.398;6.564;2023-03-03T04:26:19;1.67;;;1.50;;
53961;SDS011;39868;53.398;6.564;2023-03-03T04:28:47;3.10;;;1.77;;
53961;SDS011;39868;53.398;6.564;2023-03-03T04:31:14;2.30;;;2.13;;
53961;SDS011;39868;53.398;6.564;2023-03-03T04:33:42;2.03;;;1.93;;
53961;SDS011;39868;53.398;6.564;2023-03-03T04:36:09;2.40;;;1.93;;
53961;SDS011;39868;53.398;6.564;2023-03-03T04:38:37;2.13;;;1.93;;
53961;SDS011;39868;53.398;6.564;2023-03-03T04:41:04;2.77;;;1.77;;
53961;SDS011;39868;53.398;6.564;2023-03-03T04:43:35;1.50;;;1.50;;
53961;SDS011;39868;53.398;6.564;2023-03-03T04:46:04;1.40;;;1.40;;
53961;SDS011;39868;53.398;6.564;2023-03-03T04:48:32;3.93;;;1.93;;
53961;SDS011;39868;53.398;6.564;2023-03-03T04:51:00;1.63;;;1.53;;
53961;SDS011;39868;53.398;6.564;2023-03-03T04:53:31;1.80;;;1.70;;
53961;SDS011;39868;53.398;6.564;2023-03-03T04:55:58;2.07;;;1.90;;
53961;SDS011;39868;53.398;6.564;2023-03-03T04:58:26;1.73;;;1.63;;
53961;SDS011;39868;53.398;6.564;2023-03-03T05:00:55;1.90;;;1.80;;
53961;SDS011;39868;53.398;6.564;2023-03-03T05:03:25;2.00;;;1.87;;
53961;SDS011;39868;53.398;6.564;2023-03-03T05:05:53;4.43;;;1.63;;
53961;SDS011;39868;53.398;6.564;2023-03-03T05:08:21;2.40;;;1.70;;
53961;SDS011;39868;53.398;6.564;2023-03-03T05:10:52;1.90;;;1.80;;
53961;SDS011;39868;53.398;6.564;2023-03-03T05:13:20;1.87;;;1.80;;
53961;SDS011;39868;53.398;6.564;2023-03-03T05:15:51;1.70;;;1.60;;
53961;SDS011;39868;53.398;6.564;2023-03-03T05:18:21;2.40;;;1.70;;
53961;SDS011;39868;53.398;6.564;2023-03-03T05:20:50;1.90;;;1.80;;
53961;SDS011;39868;53.398;6.564;2023-03-03T05:23:18;1.77;;;1.67;;
53961;SDS011;39868;53.398;6.564;2023-03-03T05:25:47;2.60;;;1.70;;
53961;SDS011;39868;53.398;6.564;2023-03-03T05:28:16;2.43;;;1.67;;
53961;SDS011;39868;53.398;6.564;2023-03-03T05:30:44;1.70;;;1.60;;
53961;SDS011;39868;53.398;6.564;2023-03-03T05:33:13;1.70;;;1.60;;
53961;SDS011;39868;53.398;6.564;2023-03-03T05:35:42;1.83;;;1.73;;
53961;SDS011;39868;53.398;6.564;2023-03-03T05:38:10;4.40;;;2.03;;
53961;SDS011;39868;53.398;6.564;2023-03-03T05:40:38;2.00;;;1.90;;
53961;SDS011;39868;53.398;6.564;2023-03-03T05:43:05;2.27;;;1.87;;
53961;SDS011;39868;53.398;6.564;2023-03-03T05:45:32;1.87;;;1.57;;
53961;SDS011;39868;53.398;6.564;2023-03-03T05:48:00;6.87;;;1.70;;
53961;SDS011;39868;53.398;6.564;2023-03-03T05:50:28;1.83;;;1.70;;
53961;SDS011;39868;53.398;6.564;2023-03-03T05:52:56;2.90;;;1.70;;
53961;SDS011;39868;53.398;6.564;2023-03-03T05:55:24;1.90;;;1.73;;
53961;SDS011;39868;53.398;6.564;2023-03-03T05:57:52;3.27;;;1.90;;
53961;SDS011;39868;53.398;6.564;2023-03-03T06:00:19;2.07;;;1.87;;
53961;SDS011;39868;53.398;6.564;2023-03-03T06:02:47;2.20;;;2.10;;
53961;SDS011;39868;53.398;6.564;2023-03-03T06:05:14;2.10;;;2.00;;
53961;SDS011;39868;53.398;6.564;2023-03-03T06:07:42;5.57;;;2.37;;
53961;SDS011;39868;53.398;6.564;2023-03-03T06:10:10;2.90;;;2.10;;
53961;SDS011;39868;53.398;6.564;2023-03-03T06:12:40;2.07;;;1.83;;
53961;SDS011;39868;53.398;6.564;2023-03-03T06:15:08;2.10;;;2.00;;
53961;SDS011;39868;53.398;6.564;2023-03-03T06:17:36;2.00;;;1.90;;
53961;SDS011;39868;53.398;6.564;2023-03-03T06:20:04;2.77;;;1.87;;
53961;SDS011;39868;53.398;6.564;2023-03-03T06:22:32;3.10;;;2.10;;
53961;SDS011;39868;53.398;6.564;2023-03-03T06:24:59;4.93;;;2.10;;
53961;SDS011;39868;53.398;6.564;2023-03-03T06:27:27;2.00;;;1.90;;
53961;SDS011;39868;53.398;6.564;2023-03-03T06:29:54;2.03;;;1.83;;
53961;SDS011;39868;53.398;6.564;2023-03-03T06:32:21;2.07;;;1.97;;
53961;SDS011;39868;53.398;6.564;2023-03-03T06:34:49;2.63;;;2.50;;
53961;SDS011;39868;53.398;6.564;2023-03-03T06:37:16;2.20;;;2.10;;
53961;SDS011;39868;53.398;6.564;2023-03-03T06:39:44;2.50;;;2.30;;
53961;SDS011;39868;53.398;6.564;2023-03-03T06:42:11;4.27;;;2.27;;
53961;SDS011;39868;53.398;6.564;2023-03-03T06:44:39;2.27;;;2.17;;
53961;SDS011;39868;53.398;6.564;2023-03-03T06:47:06;4.30;;;2.40;;
53961;SDS011;39868;53.398;6.564;2023-03-03T06:49:33;2.70;;;2.50;;
53961;SDS011;39868;53.398;6.564;2023-03-03T06:52:01;4.03;;;2.43;;
53961;SDS011;39868;53.398;6.564;2023-03-03T06:54:40;2.30;;;2.20;;
53961;SDS011;39868;53.398;6.564;2023-03-03T06:57:13;2.40;;;2.30;;
53961;SDS011;39868;53.398;6.564;2023-03-03T06:59:46;2.67;;;2.40;;
53961;SDS011;39868;53.398;6.564;2023-03-03T07:02:16;2.67;;;2.20;;
53961;SDS011;39868;53.398;6.564;2023-03-03T07:04:45;2.23;;;2.10;;
53961;SDS011;39868;53.398;6.564;2023-03-03T07:07:17;2.87;;;2.67;;
53961;SDS011;39868;53.398;6.564;2023-03-03T07:09:50;3.17;;;2.40;;
53961;SDS011;39868;53.398;6.564;2023-03-03T07:12:21;2.27;;;2.17;;
53961;SDS011;39868;53.398;6.564;2023-03-03T07:17:45;2.20;;;2.10;;
53961;SDS011;39868;53.398;6.564;2023-03-03T07:20:17;7.23;;;4.77;;
53961;SDS011;39868;53.398;6.564;2023-03-03T07:22:47;4.17;;;3.23;;
53961;SDS011;39868;53.398;6.564;2023-03-03T07:25:25;6.87;;;3.70;;
53961;SDS011;39868;53.398;6.564;2023-03-03T07:28:06;4.07;;;3.67;;
53961;SDS011;39868;53.398;6.564;2023-03-03T07:30:46;3.30;;;3.00;;
53961;SDS011;39868;53.398;6.564;2023-03-03T07:33:36;2.73;;;2.53;;
53961;SDS011;39868;53.398;6.564;2023-03-03T07:36:17;6.03;;;3.13;;
53961;SDS011;39868;53.398;6.564;2023-03-03T07:38:59;3.00;;;2.50;;
53961;SDS011;39868;53.398;6.564;2023-03-03T07:41:27;2.90;;;2.70;;
53961;SDS011;39868;53.398;6.564;2023-03-03T07:44:05;2.93;;;2.53;;
53961;SDS011;39868;53.398;6.564;2023-03-03T07:49:29;3.07;;;2.53;;
53961;SDS011;39868;53.398;6.564;2023-03-03T07:54:43;2.23;;;2.03;;
53961;SDS011;39868;53.398;6.564;2023-03-03T07:57:25;2.03;;;1.93;;
53961;SDS011;39868;53.398;6.564;2023-03-03T08:02:52;2.20;;;2.10;;
53961;SDS011;39868;53.398;6.564;2023-03-03T08:05:34;2.63;;;2.17;;
53961;SDS011;39868;53.398;6.564;2023-03-03T08:10:40;2.03;;;1.93;;
53961;SDS011;39868;53.398;6.564;2023-03-03T08:13:26;4.63;;;1.90;;
53961;SDS011;39868;53.398;6.564;2023-03-03T08:18:36;1.83;;;1.60;;
53961;SDS011;39868;53.398;6.564;2023-03-03T08:21:15;2.47;;;1.77;;
53961;SDS011;39868;53.398;6.564;2023-03-03T08:23:45;3.20;;;1.60;;
53961;SDS011;39868;53.398;6.564;2023-03-03T08:26:14;5.60;;;1.70;;
53961;SDS011;39868;53.398;6.564;2023-03-03T08:28:42;2.17;;;1.60;;
53961;SDS011;39868;53.398;6.564;2023-03-03T08:31:10;2.90;;;1.70;;
53961;SDS011;39868;53.398;6.564;2023-03-03T08:33:47;1.70;;;1.60;;
53961;SDS011;39868;53.398;6.564;2023-03-03T08:36:15;3.97;;;1.70;;
53961;SDS011;39868;53.398;6.564;2023-03-03T08:38:42;3.37;;;1.70;;
53961;SDS011;39868;53.398;6.564;2023-03-03T08:41:10;2.40;;;1.60;;
53961;SDS011;39868;53.398;6.564;2023-03-03T08:43:37;2.37;;;1.80;;
53961;SDS011;39868;53.398;6.564;2023-03-03T08:46:05;1.50;;;1.40;;
53961;SDS011;39868;53.398;6.564;2023-03-03T08:48:35;1.50;;;1.40;;
53961;SDS011;39868;53.398;6.564;2023-03-03T08:51:03;1.37;;;1.37;;
53961;SDS011;39868;53.398;6.564;2023-03-03T08:53:31;1.30;;;1.30;;
53961;SDS011;39868;53.398;6.564;2023-03-03T08:56:02;1.10;;;1.10;;
53961;SDS011;39868;53.398;6.564;2023-03-03T08:58:31;3.27;;;1.43;;
53961;SDS011;39868;53.398;6.564;2023-03-03T09:01:02;3.27;;;1.50;;
53961;SDS011;39868;53.398;6.564;2023-03-03T09:03:30;1.83;;;1.73;;
53961;SDS011;39868;53.398;6.564;2023-03-03T09:05:57;1.30;;;1.20;;
53961;SDS011;39868;53.398;6.564;2023-03-03T09:08:25;3.27;;;1.43;;
53961;SDS011;39868;53.398;6.564;2023-03-03T09:10:53;2.30;;;1.30;;
53961;SDS011;39868;53.398;6.564;2023-03-03T09:13:20;2.40;;;1.47;;
53961;SDS011;39868;53.398;6.564;2023-03-03T09:15:47;1.20;;;1.10;;
53961;SDS011;39868;53.398;6.564;2023-03-03T09:18:22;1.67;;;1.33;;
53961;SDS011;39868;53.398;6.564;2023-03-03T09:20:57;1.27;;;1.17;;
53961;SDS011;39868;53.398;6.564;2023-03-03T09:26:45;1.87;;;1.40;;
53961;SDS011;39868;53.398;6.564;2023-03-03T09:28:54;4.00;;;1.10;;
53961;SDS011;39868;53.398;6.564;2023-03-03T09:31:37;2.13;;;1.50;;
53961;SDS011;39868;53.398;6.564;2023-03-03T09:36:44;2.40;;;1.10;;
53961;SDS011;39868;53.398;6.564;2023-03-03T09:39:16;0.80;;;0.80;;
53961;SDS011;39868;53.398;6.564;2023-03-03T09:41:52;1.77;;;1.20;;
53961;SDS011;39868;53.398;6.564;2023-03-03T09:55:21;1.50;;;1.38;;
53961;SDS011;39868;53.398;6.564;2023-03-03T09:58:25;2.60;;;1.00;;
53961;SDS011;39868;53.398;6.564;2023-03-03T10:01:04;2.50;;;0.90;;
53961;SDS011;39868;53.398;6.564;2023-03-03T10:03:47;1.80;;;0.90;;
53961;SDS011;39868;53.398;6.564;2023-03-03T10:06:30;1.98;;;0.85;;
53961;SDS011;39868;53.398;6.564;2023-03-03T10:12:12;4.03;;;0.75;;
53961;SDS011;39868;53.398;6.564;2023-03-03T10:20:10;1.38;;;0.60;;
53961;SDS011;39868;53.398;6.564;2023-03-03T10:22:45;1.70;;;0.75;;
53961;SDS011;39868;53.398;6.564;2023-03-03T10:49:58;0.80;;;0.60;;
53961;SDS011;39868;53.398;6.564;2023-03-03T10:52:36;0.60;;;0.50;;
53961;SDS011;39868;53.398;6.564;2023-03-03T10:55:25;3.58;;;0.65;;
53961;SDS011;39868;53.398;6.564;2023-03-03T11:00:58;1.38;;;0.50;;
53961;SDS011;39868;53.398;6.564;2023-03-03T11:06:17;0.82;;;0.50;;
53961;SDS011;39868;53.398;6.564;2023-03-03T11:09:07;0.95;;;0.73;;
53961;SDS011;39868;53.398;6.564;2023-03-03T11:12:23;1.55;;;0.90;;
53961;SDS011;39868;53.398;6.564;2023-03-03T11:21:00;2.95;;;0.60;;
53961;SDS011;39868;53.398;6.564;2023-03-03T11:23:49;0.55;;;0.40;;
53961;SDS011;39868;53.398;6.564;2023-03-03T11:29:29;3.63;;;0.73;;
53961;SDS011;39868;53.398;6.564;2023-03-03T11:35:24;0.50;;;0.50;;
53961;SDS011;39868;53.398;6.564;2023-03-03T11:38:26;1.45;;;0.75;;
53961;SDS011;39868;53.398;6.564;2023-03-03T11:43:48;0.82;;;0.65;;
53961;SDS011;39868;53.398;6.564;2023-03-03T11:49:46;3.22;;;0.70;;
53961;SDS011;39868;53.398;6.564;2023-03-03T11:52:38;1.48;;;0.70;;
53961;SDS011;39868;53.398;6.564;2023-03-03T11:55:18;5.57;;;1.08;;
53961;SDS011;39868;53.398;6.564;2023-03-03T12:06:32;3.60;;;1.17;;
53961;SDS011;39868;53.398;6.564;2023-03-03T12:12:20;3.95;;;1.17;;
53961;SDS011;39868;53.398;6.564;2023-03-03T12:18:05;4.47;;;0.80;;
53961;SDS011;39868;53.398;6.564;2023-03-03T12:21:04;4.13;;;0.80;;
53961;SDS011;39868;53.398;6.564;2023-03-03T12:29:18;7.18;;;1.67;;
53961;SDS011;39868;53.398;6.564;2023-03-03T12:31:52;3.80;;;1.13;;
53961;SDS011;39868;53.398;6.564;2023-03-03T12:37:13;10.18;;;1.63;;
53961;SDS011;39868;53.398;6.564;2023-03-03T12:39:46;10.73;;;1.90;;
53961;SDS011;39868;53.398;6.564;2023-03-03T12:47:52;7.55;;;1.60;;
53961;SDS011;39868;53.398;6.564;2023-03-03T12:53:16;8.77;;;1.85;;
53961;SDS011;39868;53.398;6.564;2023-03-03T12:55:52;6.82;;;1.58;;
53961;SDS011;39868;53.398;6.564;2023-03-03T13:06:57;5.90;;;1.58;;
53961;SDS011;39868;53.398;6.564;2023-03-03T13:09:34;6.15;;;1.88;;
53961;SDS011;39868;53.398;6.564;2023-03-03T13:12:36;8.23;;;2.03;;
53961;SDS011;39868;53.398;6.564;2023-03-03T13:20:21;7.45;;;1.42;;
53961;SDS011;39868;53.398;6.564;2023-03-03T13:23:11;7.40;;;1.50;;
53961;SDS011;39868;53.398;6.564;2023-03-03T13:26:09;6.47;;;1.40;;
53961;SDS011;39868;53.398;6.564;2023-03-03T13:31:38;9.63;;;1.90;;
53961;SDS011;39868;53.398;6.564;2023-03-03T13:34:10;5.55;;;1.58;;
53961;SDS011;39868;53.398;6.564;2023-03-03T13:36:59;4.25;;;1.40;;
53961;SDS011;39868;53.398;6.564;2023-03-03T13:39:49;6.25;;;1.63;;
53961;SDS011;39868;53.398;6.564;2023-03-03T13:44:54;6.03;;;1.20;;
53961;SDS011;39868;53.398;6.564;2023-03-03T13:50:28;9.23;;;1.95;;
53961;SDS011;39868;53.398;6.564;2023-03-03T13:53:01;6.18;;;1.90;;
53961;SDS011;39868;53.398;6.564;2023-03-03T13:58:36;4.40;;;1.52;;
53961;SDS011;39868;53.398;6.564;2023-03-03T14:01:21;10.52;;;2.10;;
53961;SDS011;39868;53.398;6.564;2023-03-03T14:06:31;4.93;;;2.00;;
53961;SDS011;39868;53.398;6.564;2023-03-03T14:12:19;10.63;;;1.77;;
53961;SDS011;39868;53.398;6.564;2023-03-03T14:15:23;6.35;;;2.03;;
53961;SDS011;39868;53.398;6.564;2023-03-03T14:20:49;3.63;;;1.73;;
53961;SDS011;39868;53.398;6.564;2023-03-03T14:25:56;6.03;;;2.17;;
53961;SDS011;39868;53.398;6.564;2023-03-03T14:28:40;7.85;;;1.63;;
53961;SDS011;39868;53.398;6.564;2023-03-03T14:31:25;6.53;;;1.83;;
53961;SDS011;39868;53.398;6.564;2023-03-03T14:34:02;3.92;;;1.80;;
53961;SDS011;39868;53.398;6.564;2023-03-03T14:36:50;8.30;;;1.85;;
53961;SDS011;39868;53.398;6.564;2023-03-03T14:42:01;6.53;;;1.98;;
53961;SDS011;39868;53.398;6.564;2023-03-03T14:47:15;9.68;;;1.67;;
53961;SDS011;39868;53.398;6.564;2023-03-03T14:49:48;6.38;;;1.73;;
53961;SDS011;39868;53.398;6.564;2023-03-03T14:52:21;8.23;;;2.10;;
53961;SDS011;39868;53.398;6.564;2023-03-03T14:54:52;6.75;;;1.67;;
53961;SDS011;39868;53.398;6.564;2023-03-03T15:00:14;8.15;;;1.80;;
53961;SDS011;39868;53.398;6.564;2023-03-03T15:05:30;6.03;;;1.92;;
53961;SDS011;39868;53.398;6.564;2023-03-03T15:10:37;10.20;;;2.13;;
53961;SDS011;39868;53.398;6.564;2023-03-03T15:15:59;3.42;;;1.92;;
53961;SDS011;39868;53.398;6.564;2023-03-03T15:18:30;7.45;;;2.20;;
53961;SDS011;39868;53.398;6.564;2023-03-03T15:21:08;5.47;;;2.00;;
53961;SDS011;39868;53.398;6.564;2023-03-03T15:26:19;7.47;;;1.70;;
53961;SDS011;39868;53.398;6.564;2023-03-03T15:32:14;6.68;;;2.05;;
53961;SDS011;39868;53.398;6.564;2023-03-03T15:35:05;7.32;;;2.78;;
53961;SDS011;39868;53.398;6.564;2023-03-03T15:38:03;6.93;;;2.13;;
53961;SDS011;39868;53.398;6.564;2023-03-03T15:54:54;4.43;;;2.55;;
53961;SDS011;39868;53.398;6.564;2023-03-03T15:57:45;6.88;;;1.88;;
53961;SDS011;39868;53.398;6.564;2023-03-03T16:00:28;4.27;;;1.80;;
53961;SDS011;39868;53.398;6.564;2023-03-03T16:03:23;6.18;;;2.20;;
53961;SDS011;39868;53.398;6.564;2023-03-03T16:06:00;10.02;;;2.45;;
53961;SDS011;39868;53.398;6.564;2023-03-03T16:08:40;6.90;;;1.73;;
53961;SDS011;39868;53.398;6.564;2023-03-03T16:14:09;7.60;;;2.10;;
53961;SDS011;39868;53.398;6.564;2023-03-03T16:16:53;8.35;;;2.38;;
53961;SDS011;39868;53.398;6.564;2023-03-03T16:28:08;8.43;;;2.50;;
53961;SDS011;39868;53.398;6.564;2023-03-03T16:33:36;10.13;;;2.07;;
53961;SDS011;39868;53.398;6.564;2023-03-03T16:38:57;10.10;;;2.40;;
53961;SDS011;39868;53.398;6.564;2023-03-03T16:42:01;6.53;;;1.98;;
53961;SDS011;39868;53.398;6.564;2023-03-03T16:50:09;5.57;;;1.73;;
53961;SDS011;39868;53.398;6.564;2023-03-03T16:52:54;7.47;;;2.30;;
53961;SDS011;39868;53.398;6.564;2023-03-03T17:03:57;7.27;;;1.80;;
53961;SDS011;39868;53.398;6.564;2023-03-03T17:06:36;6.87;;;2.27;;
53961;SDS011;39868;53.398;6.564;2023-03-03T17:26:07;7.27;;;2.13;;
53961;SDS011;39868;53.398;6.564;2023-03-03T17:40:07;6.63;;;2.00;;
53961;SDS011;39868;53.398;6.564;2023-03-03T17:45:47;11.47;;;2.17;;
53961;SDS011;39868;53.398;6.564;2023-03-03T17:56:39;8.90;;;2.57;;
53961;SDS011;39868;53.398;6.564;2023-03-03T18:12:49;5.83;;;2.20;;
53961;SDS011;39868;53.398;6.564;2023-03-03T18:15:52;10.30;;;2.17;;
53961;SDS011;39868;53.398;6.564;2023-03-03T18:19:03;10.67;;;2.07;;
53961;SDS011;39868;53.398;6.564;2023-03-03T18:24:27;10.90;;;2.43;;
53961;SDS011;39868;53.398;6.564;2023-03-03T18:32:47;9.27;;;2.47;;
53961;SDS011;39868;53.398;6.564;2023-03-03T18:35:29;11.03;;;2.50;;
53961;SDS011;39868;53.398;6.564;2023-03-03T18:46:43;12.07;;;2.50;;
53961;SDS011;39868;53.398;6.564;2023-03-03T18:49:45;6.07;;;1.83;;
53961;SDS011;39868;53.398;6.564;2023-03-03T18:57:36;4.23;;;1.90;;
53961;SDS011;39868;53.398;6.564;2023-03-03T19:00:13;8.10;;;2.27;;
53961;SDS011;39868;53.398;6.564;2023-03-03T19:02:54;8.00;;;2.20;;
53961;SDS011;39868;53.398;6.564;2023-03-03T19:05:25;9.97;;;2.43;;
53961;SDS011;39868;53.398;6.564;2023-03-03T19:10:58;7.00;;;2.10;;
53961;SDS011;39868;53.398;6.564;2023-03-03T19:16:03;10.43;;;2.27;;
53961;SDS011;39868;53.398;6.564;2023-03-03T19:18:33;11.43;;;2.10;;
53961;SDS011;39868;53.398;6.564;2023-03-03T19:21:24;10.87;;;2.60;;
53961;SDS011;39868;53.398;6.564;2023-03-03T19:23:59;6.83;;;2.03;;
53961;SDS011;39868;53.398;6.564;2023-03-03T19:26:45;6.77;;;2.07;;
53961;SDS011;39868;53.398;6.564;2023-03-03T19:29:36;7.65;;;1.70;;
53961;SDS011;39868;53.398;6.564;2023-03-03T19:32:30;5.93;;;2.20;;
53961;SDS011;39868;53.398;6.564;2023-03-03T19:35:26;8.13;;;2.07;;
53961;SDS011;39868;53.398;6.564;2023-03-03T20:01:43;5.75;;;2.22;;
53961;SDS011;39868;53.398;6.564;2023-03-03T20:07:43;8.07;;;1.87;;
53961;SDS011;39868;53.398;6.564;2023-03-03T20:16:09;14.35;;;2.25;;
53961;SDS011;39868;53.398;6.564;2023-03-03T20:28:04;8.77;;;1.90;;
53961;SDS011;39868;53.398;6.564;2023-03-03T20:30:49;6.60;;;2.00;;
53961;SDS011;39868;53.398;6.564;2023-03-03T20:33:36;10.10;;;2.50;;
53961;SDS011;39868;53.398;6.564;2023-03-03T20:36:14;8.13;;;2.43;;
53961;SDS011;39868;53.398;6.564;2023-03-03T20:41:54;4.70;;;2.10;;
53961;SDS011;39868;53.398;6.564;2023-03-03T20:53:08;4.97;;;2.23;;
53961;SDS011;39868;53.398;6.564;2023-03-03T20:58:16;4.90;;;1.93;;
53961;SDS011;39868;53.398;6.564;2023-03-03T21:01:02;7.93;;;1.90;;
53961;SDS011;39868;53.398;6.564;2023-03-03T21:03:34;5.90;;;2.03;;
53961;SDS011;39868;53.398;6.564;2023-03-03T21:06:08;7.67;;;2.47;;
53961;SDS011;39868;53.398;6.564;2023-03-03T21:08:42;2.30;;;1.30;;
53961;SDS011;39868;53.398;6.564;2023-03-03T21:11:39;7.30;;;2.20;;
53961;SDS011;39868;53.398;6.564;2023-03-03T21:14:10;5.77;;;2.30;;
53961;SDS011;39868;53.398;6.564;2023-03-03T21:16:45;8.47;;;2.27;;
53961;SDS011;39868;53.398;6.564;2023-03-03T21:19:22;6.07;;;2.43;;
53961;SDS011;39868;53.398;6.564;2023-03-03T21:21:58;5.30;;;1.90;;
53961;SDS011;39868;53.398;6.564;2023-03-03T21:27:24;5.53;;;1.90;;
53961;SDS011;39868;53.398;6.564;2023-03-03T21:30:09;7.53;;;1.73;;
53961;SDS011;39868;53.398;6.564;2023-03-03T21:32:41;5.80;;;2.00;;
53961;SDS011;39868;53.398;6.564;2023-03-03T21:35:14;4.17;;;1.77;;
53961;SDS011;39868;53.398;6.564;2023-03-03T21:37:48;8.23;;;2.30;;
53961;SDS011;39868;53.398;6.564;2023-03-03T21:40:21;6.10;;;1.87;;
53961;SDS011;39868;53.398;6.564;2023-03-03T21:42:52;9.50;;;1.83;;
53961;SDS011;39868;53.398;6.564;2023-03-03T21:45:21;7.73;;;1.87;;
53961;SDS011;39868;53.398;6.564;2023-03-03T21:47:49;3.87;;;1.80;;
53961;SDS011;39868;53.398;6.564;2023-03-03T21:50:17;4.90;;;1.60;;